Etusivu
METAR-TAF:

METAR-TAF

Lentoasemat :

Bahrain, Bahrain

Bahrainin kansainvälinen lentoasema

Leveyspiiri: 26-16N, Pituuspiiri: 050-39E, korkeus merenpinnasta: 2 m

Tämänhetkinen sää

Tämä raportti tehtiin 12 tuntia ja 0 minuuttia sitten, kello 15.00 UTC
Tuuli 8 kn pohjoisen/luoteesta
Lämpötila 20°C
Kosteus 60%
Ilmanpaine 1014 hPa
Näkyvyys 10 km tai enemmän
ei pilviä alle 1500 m:ssä eikä cumulonimbus-pilviä

METAR: OBBI 201500Z 34008KT CAVOK 20/12 Q1014 NOSIG

Aika: 06:00 (03:00 UTC)

Sääennuste

Tämä raportti tehtiin 16 tuntia ja 0 minuuttia sitten, kello 11.00 UTC
Ennuste voimassa 20. päivästä klo 12 UTC - 21. päivään klo 18 UTC
Tuuli 10 kn pohjoisen/luoteesta
Näkyvyys: 7000 m

TAF: OBBI 201100Z 2012/2118 34010KT 7000 NSC

Säähavainnot ja -ennusteet yli 4000 lentoasemalta (METAR- ja TAF-raportit).

Käytössä olevat sääasemat on merkitty karttaan keltaisilla ja punaisilla pisteillä.

Aseta hiiri pisteen päälle nähdäksesi sääaseman nimen.

Klikkaa sitten nähdäksesi säähavainnot ja -ennusteet.

Kartan vaihtaminen: klikkaa mustalla rastilla varustettuja vihreitä pisteitä, niin voit zoomata sisään; viivalla varustettua vihreää pistettä, niin voit zoomata ulos tai vihreitä nuolia, niin pääset viereisille kartoille.


METAR-TAF: